Crystal City, Virginia
Current Conditions -  °F | °C
As of 4:52 PM on Tuesday 25 Nov 2014 (Local Time) from KDCA Reporting Station
Broken Clouds Broken Clouds  
Wind Chill: 55°   Ceiling: 21000
Heat Index: 55°   Visibility: 10mi
Dew Point: 31°   Wind: 5mph
Humidity: 40%   Direction: 170°S
Pressure: 30.07"   Gusts: NA
Location:  38.8565°N, 77.0512°W
Report Text: KDCA 252152Z 17004KT 10SM FEW080 SCT160 BKN210 13/M01 A3007 RMK AO2 SLP182 T01281006
Loading
Personal Weather Stations






























Interactive Weather Map New forecast layout! Learn more

10-Day Weather Forecast

Advertisements
Track Severe Weather on mobile